Time;durP1;ratioP1;P1;durP2;ratioP2;P2;SDS_P1;SDS_P2;PMS_P1;PMS_P2;Temp;Humidity;BMP_temperature;BMP_pressure;BME280_temperature;BME280_humidity;BME280_pressure;Samples;Min_cycle;Max_cycle;Signal;HPM_P1;HPM_P2
2023/10/22 00:00:09;;;;;;;5.10;2.27;;;;;;;-145.69;60.31;52210.72;4990296;28;20202;-81
2023/10/22 00:02:36;;;;;;;5.97;2.03;;;;;;;-145.69;60.59;52208.72;4990975;28;20202;-81
2023/10/22 00:05:04;;;;;;;6.00;1.67;;;;;;;-145.69;60.46;52200.81;4985264;28;20226;-80
2023/10/22 00:07:32;;;;;;;3.17;1.37;;;;;;;-145.69;61.39;52224.56;4990421;28;20202;-79
2023/10/22 00:09:58;;;;;;;4.83;1.93;;;;;;;-145.69;61.34;52206.75;4982201;28;20657;-78
2023/10/22 00:12:25;;;;;;;7.37;2.43;;;;;;;-145.69;61.42;52206.75;4982814;28;20195;-81
2023/10/22 00:14:51;;;;;;;2.83;2.07;;;;;;;-145.69;61.39;52200.81;4986183;28;20202;-81
2023/10/22 00:17:18;;;;;;;3.33;1.80;;;;;;;-145.69;60.93;52194.88;4983417;28;20198;-81
2023/10/22 00:19:44;;;;;;;2.07;1.87;;;;;;;-145.69;61.67;52202.78;4984534;28;20210;-81
2023/10/22 00:22:13;;;;;;;5.20;1.70;;;;;;;-145.69;61.89;52198.81;4983229;28;20229;-81
2023/10/22 00:24:43;;;;;;;3.53;1.73;;;;;;;-145.69;62.46;52196.84;4979924;28;20225;-80
2023/10/22 00:27:09;;;;;;;3.80;1.50;;;;;;;-145.69;62.31;52240.41;4989597;28;20203;-81
2023/10/22 00:29:36;;;;;;;5.13;1.80;;;;;;;-145.69;62.84;52218.63;4985965;28;20209;-80
2023/10/22 00:32:02;;;;;;;8.33;2.10;;;;;;;-145.69;64.04;52222.59;4986347;28;20198;-81
2023/10/22 00:34:29;;;;;;;5.63;2.30;;;;;;;-145.69;63.36;52218.63;4981992;28;20203;-80
2023/10/22 00:36:55;;;;;;;5.83;1.70;;;;;;;-145.69;63.55;52222.59;4980118;28;20248;-81
2023/10/22 00:39:22;;;;;;;4.47;1.70;;;;;;;-145.69;63.88;52179.03;4983650;28;20209;-81
2023/10/22 00:41:50;;;;;;;3.33;1.90;;;;;;;-145.69;63.82;52228.53;4985581;28;20198;-80
2023/10/22 00:44:16;;;;;;;3.67;1.87;;;;;;;-145.69;63.31;52208.72;4988419;28;20218;-81
2023/10/22 00:46:45;;;;;;;3.27;1.90;;;;;;;-145.69;62.39;52179.03;4983169;28;20211;-81
2023/10/22 00:49:13;;;;;;;2.63;1.70;;;;;;;-145.69;61.92;52194.88;4980100;28;20205;-81
2023/10/22 00:51:39;;;;;;;2.67;1.83;;;;;;;-145.69;62.04;52198.81;4982281;28;20213;-80
2023/10/22 00:54:06;;;;;;;2.00;1.50;;;;;;;-145.69;61.40;52179.03;4983562;28;20213;-81
2023/10/22 00:56:34;;;;;;;4.23;1.47;;;;;;;-145.69;60.92;52206.75;4981012;28;20633;-80
2023/10/22 00:59:01;;;;;;;5.57;2.03;;;;;;;-145.69;60.18;52169.13;4984066;28;20209;-81
2023/10/22 01:01:28;;;;;;;5.00;1.70;;;;;;;-145.69;58.83;52202.78;4983526;28;20206;-81
2023/10/22 01:03:54;;;;;;;3.40;1.30;;;;;;;-145.69;59.24;52169.13;4985790;28;20233;-81
2023/10/22 01:06:21;;;;;;;4.00;1.60;;;;;;;-145.69;58.60;52175.06;4984189;28;20209;-82
2023/10/22 01:08:48;;;;;;;4.50;1.70;;;;;;;-145.69;59.04;52202.78;4980664;28;20198;-80
2023/10/22 01:11:15;;;;;;;2.90;1.63;;;;;;;-145.69;58.57;52159.22;4982185;28;20284;-80
2023/10/22 01:13:41;;;;;;;2.20;1.30;;;;;;;-145.69;58.41;52177.03;4994918;28;20202;-80
2023/10/22 01:16:09;;;;;;;3.33;1.73;;;;;;;-145.69;58.67;52177.03;4979035;28;20210;-81
2023/10/22 01:18:36;;;;;;;4.20;1.73;;;;;;;-145.69;58.01;52206.75;4977684;28;20202;-81
2023/10/22 01:21:04;;;;;;;6.00;1.60;;;;;;;-145.69;57.48;52165.16;4980804;28;20243;-82
2023/10/22 01:23:36;;;;;;;2.92;1.42;;;;;;;-145.69;57.41;52179.03;4983411;28;20203;-80
2023/10/22 01:26:04;;;;;;;3.27;2.00;;;;;;;-145.69;57.78;52181.00;4982347;28;20603;-80
2023/10/22 01:28:31;;;;;;;2.87;1.50;;;;;;;-145.69;57.68;52208.72;4987824;28;20209;-81
2023/10/22 01:30:57;;;;;;;1.73;1.40;;;;;;;-145.69;58.21;52173.09;4986011;28;20221;-81
2023/10/22 01:33:23;;;;;;;4.37;1.70;;;;;;;-145.69;58.36;52169.13;4983580;28;20217;-80
2023/10/22 01:35:49;;;;;;;4.27;1.40;;;;;;;-145.69;58.42;52226.53;4989932;28;20708;-81
2023/10/22 01:38:16;;;;;;;1.80;1.07;;;;;;;-145.69;59.02;52179.03;4988918;28;20206;-81
2023/10/22 01:40:44;;;;;;;3.47;1.80;;;;;;;-145.69;59.29;52202.78;4986010;28;20202;-81
2023/10/22 01:43:10;;;;;;;3.50;1.90;;;;;;;-145.69;59.96;52196.84;4986439;28;20202;-80
2023/10/22 01:45:37;;;;;;;2.87;1.70;;;;;;;-145.69;59.91;52186.94;4990721;28;20565;-80
2023/10/22 01:48:04;;;;;;;2.40;1.70;;;;;;;-145.69;60.63;52214.66;4981537;28;20206;-80
2023/10/22 01:50:30;;;;;;;4.03;2.13;;;;;;;-145.69;60.52;52198.81;4983080;28;20213;-80
2023/10/22 01:52:57;;;;;;;5.03;1.93;;;;;;;-145.69;61.45;52194.88;4979387;28;20213;-81
2023/10/22 01:55:23;;;;;;;5.30;1.67;;;;;;;-145.69;61.39;52198.81;4986590;28;20685;-80
2023/10/22 01:57:51;;;;;;;4.23;2.10;;;;;;;-145.69;61.61;52186.94;4986953;28;20229;-81
2023/10/22 02:00:18;;;;;;;3.43;1.97;;;;;;;-145.69;61.81;52228.53;4988526;28;20265;-81
2023/10/22 02:02:44;;;;;;;3.97;1.80;;;;;;;-145.69;62.23;52228.53;4991085;28;20194;-81
2023/10/22 02:05:11;;;;;;;5.47;2.00;;;;;;;-145.69;62.26;52230.50;4992460;28;20229;-81
2023/10/22 02:07:38;;;;;;;5.23;2.10;;;;;;;-145.69;62.34;52190.91;4992366;28;20210;-80
2023/10/22 02:10:08;;;;;;;4.70;1.70;;;;;;;-145.69;62.28;52240.41;4993703;28;20202;-81
2023/10/22 02:12:35;;;;;;;4.23;1.93;;;;;;;-145.69;62.91;52226.53;4992131;28;20221;-81
2023/10/22 02:15:03;;;;;;;5.40;1.83;;;;;;;-145.69;62.32;52250.31;4992570;28;20187;-81
2023/10/22 02:17:30;;;;;;;2.60;1.80;;;;;;;-145.69;63.34;52212.69;4991514;28;20206;-81
2023/10/22 02:19:56;;;;;;;2.73;2.13;;;;;;;-145.69;63.18;52196.84;4992144;28;20187;-81
2023/10/22 02:22:23;;;;;;;3.30;2.20;;;;;;;-145.69;63.01;52248.34;4994968;28;20200;-81
2023/10/22 02:24:49;;;;;;;2.53;2.00;;;;;;;-145.69;64.06;52230.50;4993307;28;20637;-80
2023/10/22 02:27:16;;;;;;;3.93;2.10;;;;;;;-145.69;63.94;52244.38;4993812;28;20198;-81
2023/10/22 02:29:42;;;;;;;4.10;2.10;;;;;;;-145.69;63.45;52250.31;4993611;28;20213;-81
2023/10/22 02:32:10;;;;;;;3.77;2.10;;;;;;;-145.69;63.54;52192.88;4994068;28;20187;-80
2023/10/22 02:34:37;;;;;;;7.60;2.40;;;;;;;-145.69;64.38;52198.81;4992042;28;20248;-80
2023/10/22 02:37:03;;;;;;;6.90;2.40;;;;;;;-145.69;63.76;52206.75;4993143;28;20234;-81
2023/10/22 02:39:29;;;;;;;5.00;2.13;;;;;;;-145.69;64.46;52254.28;4993945;28;20190;-81
2023/10/22 02:41:56;;;;;;;6.07;2.13;;;;;;;-145.69;64.25;52220.59;4996316;28;20249;-82
2023/10/22 02:44:22;;;;;;;3.97;2.03;;;;;;;-145.69;64.59;52252.28;4992242;28;20234;-81
2023/10/22 02:46:49;;;;;;;4.40;2.20;;;;;;;-145.69;64.11;52238.44;4996896;28;20253;-81
2023/10/22 02:49:17;;;;;;;2.53;1.87;;;;;;;-145.69;65.20;52226.53;4992233;28;20209;-81
2023/10/22 02:51:44;;;;;;;3.53;1.70;;;;;;;-145.69;65.71;52238.44;4985443;28;20652;-80
2023/10/22 02:54:11;;;;;;;2.73;1.77;;;;;;;-145.69;65.46;52234.47;4990376;28;20661;-81
2023/10/22 02:56:39;;;;;;;6.73;1.80;;;;;;;-145.69;64.91;52246.34;4993669;28;20198;-81
2023/10/22 02:59:05;;;;;;;2.67;1.77;;;;;;;-145.69;65.17;52224.56;4995035;28;20210;-81
2023/10/22 03:01:32;;;;;;;6.17;2.30;;;;;;;-145.69;64.87;52230.50;4979498;28;20203;-81
2023/10/22 03:03:59;;;;;;;4.77;2.53;;;;;;;-145.69;65.22;52250.31;5038558;28;20242;-81
2023/10/22 03:06:27;;;;;;;3.77;1.70;;;;;;;-145.69;64.95;52210.72;5100150;28;20205;-81
2023/10/22 03:08:54;;;;;;;5.13;1.67;;;;;;;-145.69;64.38;52214.66;5097910;28;20636;-82
2023/10/22 03:11:20;;;;;;;2.97;1.60;;;;;;;-145.69;64.58;52218.63;5088938;28;20199;-80
2023/10/22 03:13:50;;;;;;;2.97;1.57;;;;;;;-145.69;64.81;52244.38;4991760;28;20202;-81
2023/10/22 03:16:17;;;;;;;2.03;1.47;;;;;;;-145.69;64.43;52216.66;4993264;28;20339;-81
2023/10/22 03:18:45;;;;;;;5.13;1.60;;;;;;;-145.69;65.90;52254.28;4995093;28;20218;-81
2023/10/22 03:21:12;;;;;;;3.17;1.80;;;;;;;-145.69;65.48;52220.59;4996377;28;20203;-81
2023/10/22 03:23:41;;;;;;;5.50;2.10;;;;;;;-145.69;65.61;52214.66;4996199;28;20250;-81
2023/10/22 03:26:09;;;;;;;6.20;1.57;;;;;;;-145.69;65.61;52232.50;4995453;28;20230;-81
2023/10/22 03:28:36;;;;;;;7.17;1.30;;;;;;;-145.69;65.07;52242.38;4994522;28;20206;-81
2023/10/22 03:31:04;;;;;;;3.00;1.67;;;;;;;-145.69;65.55;52250.31;4993088;28;20194;-81
2023/10/22 03:33:31;;;;;;;5.37;1.40;;;;;;;-145.69;65.05;52242.38;4994567;28;20193;-81
2023/10/22 03:35:57;;;;;;;2.93;1.40;;;;;;;-145.69;65.26;52234.47;4992496;28;20218;-81
2023/10/22 03:38:24;;;;;;;4.43;1.40;;;;;;;-145.69;65.72;52244.38;4994764;28;20225;-81
2023/10/22 03:40:58;;;;;;;6.17;1.97;;;;;;;-145.69;65.03;52254.28;4993482;28;20214;-81
2023/10/22 03:43:25;;;;;;;1.77;1.37;;;;;;;-145.69;65.52;52254.28;4990938;28;20207;-81
2023/10/22 03:45:51;;;;;;;3.27;1.17;;;;;;;-145.69;65.43;52240.41;4993096;28;20232;-81
2023/10/22 03:48:18;;;;;;;3.03;1.50;;;;;;;-145.69;64.94;52230.50;5012736;28;20577;-81
2023/10/22 03:50:45;;;;;;;5.40;1.30;;;;;;;-145.69;65.16;52246.34;4985453;28;20206;-81
2023/10/22 03:53:11;;;;;;;2.10;1.53;;;;;;;-145.69;65.64;52289.91;4985103;28;20210;-80
2023/10/22 03:55:38;;;;;;;1.73;1.17;;;;;;;-145.69;65.21;52256.25;4989947;28;20554;-81
2023/10/22 03:58:06;;;;;;;4.87;1.73;;;;;;;-145.69;66.10;52246.34;4985797;28;20213;-80
2023/10/22 04:00:33;;;;;;;3.03;1.50;;;;;;;-145.69;65.72;52264.16;4982118;28;20233;-80
2023/10/22 04:02:59;;;;;;;2.90;1.40;;;;;;;-145.69;66.55;52278.03;4983300;28;20206;-80
2023/10/22 04:05:26;;;;;;;4.67;1.50;;;;;;;-145.69;65.89;52230.50;4977545;28;20233;-80
2023/10/22 04:07:52;;;;;;;1.57;1.20;;;;;;;-145.69;66.73;52258.22;4990378;28;20205;-81
2023/10/22 04:10:19;;;;;;;5.90;1.40;;;;;;;-145.69;65.96;52250.31;4994614;28;20209;-81
2023/10/22 04:12:46;;;;;;;4.23;1.43;;;;;;;-145.69;65.88;52270.13;4997090;28;20649;-81
2023/10/22 04:15:14;;;;;;;1.87;1.07;;;;;;;-145.69;66.73;52248.34;4996220;28;20209;-81
2023/10/22 04:17:40;;;;;;;5.17;1.30;;;;;;;-145.69;66.40;52234.47;4996677;28;20202;-81
2023/10/22 04:20:08;;;;;;;4.53;1.57;;;;;;;-145.69;66.38;52236.44;4996204;28;20210;-81
2023/10/22 04:22:35;;;;;;;2.80;1.30;;;;;;;-145.69;65.68;52226.53;4994530;28;20204;-80
2023/10/22 04:25:02;;;;;;;3.77;1.10;;;;;;;-145.69;65.84;52252.28;4991476;28;20210;-81
2023/10/22 04:27:28;;;;;;;5.00;1.40;;;;;;;-145.69;67.53;52230.50;4986675;28;20198;-81
2023/10/22 04:29:55;;;;;;;4.47;1.23;;;;;;;-145.69;66.54;52270.13;4984786;28;20687;-81
2023/10/22 04:32:24;;;;;;;5.67;1.20;;;;;;;-145.69;66.62;52202.78;4974004;28;20208;-81
2023/10/22 04:34:50;;;;;;;7.27;1.50;;;;;;;-145.69;66.03;52246.34;4974257;28;20198;-81
2023/10/22 04:37:17;;;;;;;4.97;1.27;;;;;;;-145.69;66.33;52264.16;4975116;28;20244;-80
2023/10/22 04:39:44;;;;;;;6.97;1.10;;;;;;;-145.69;66.91;52254.28;4973363;28;20206;-80
2023/10/22 04:42:10;;;;;;;6.40;1.10;;;;;;;-145.69;66.55;52274.06;4973039;28;20194;-81
2023/10/22 04:44:37;;;;;;;1.47;0.90;;;;;;;-145.69;65.56;52264.16;4974961;28;20289;-81
2023/10/22 04:47:03;;;;;;;4.93;1.30;;;;;;;-145.69;65.99;52262.19;4988997;28;20205;-80
2023/10/22 04:49:31;;;;;;;4.87;1.67;;;;;;;-145.69;65.71;52274.06;4979629;28;20202;-80
2023/10/22 04:51:58;;;;;;;7.90;1.20;;;;;;;-145.69;65.62;52238.44;4984983;28;20198;-80
2023/10/22 04:54:25;;;;;;;1.97;0.90;;;;;;;-145.69;65.07;52274.06;4982509;28;20207;-80
2023/10/22 04:56:51;;;;;;;2.70;1.00;;;;;;;-145.69;66.39;52283.97;4975834;28;20198;-80
2023/10/22 04:59:19;;;;;;;1.97;0.80;;;;;;;-145.69;65.62;52262.19;4976818;28;20210;-80
2023/10/22 05:01:45;;;;;;;1.77;0.77;;;;;;;-145.69;65.56;52266.16;4977390;28;20207;-80
2023/10/22 05:04:12;;;;;;;5.00;1.00;;;;;;;-145.69;66.85;52246.34;4998157;28;20194;-80
2023/10/22 05:06:40;;;;;;;7.30;1.20;;;;;;;-145.69;67.72;52236.44;5088403;28;20462;-81
2023/10/22 05:09:06;;;;;;;1.17;0.80;;;;;;;-145.69;66.10;52224.56;5083349;28;20209;-80
2023/10/22 05:11:32;;;;;;;6.50;1.00;;;;;;;-145.69;65.91;52282.00;5071323;28;20277;-80
2023/10/22 05:13:59;;;;;;;4.53;1.07;;;;;;;-145.69;65.64;52280.00;4987265;28;20206;-80
2023/10/22 05:16:26;;;;;;;0.80;0.80;;;;;;;-145.69;65.09;52258.22;4990362;28;20198;-80
2023/10/22 05:18:53;;;;;;;8.00;1.10;;;;;;;-145.69;67.28;52234.47;4990435;28;20247;-80
2023/10/22 05:21:20;;;;;;;2.63;1.10;;;;;;;-145.69;66.15;52274.06;4991079;28;20735;-80
2023/10/22 05:23:48;;;;;;;1.80;0.80;;;;;;;-145.69;67.29;52222.59;4988970;28;20207;-81
2023/10/22 05:26:15;;;;;;;4.47;1.07;;;;;;;-145.69;67.07;52258.22;4981439;28;20230;-81
2023/10/22 05:28:41;;;;;;;6.17;1.27;;;;;;;-145.69;66.23;52264.16;4982762;28;20198;-80
2023/10/22 05:31:15;;;;;;;1.07;0.90;;;;;;;-145.69;65.93;52289.91;4983539;28;20229;-80
2023/10/22 05:33:42;;;;;;;3.63;1.30;;;;;;;-145.69;66.48;52260.22;4987094;28;20202;-80
2023/10/22 05:36:16;;;;;;;1.57;0.97;;;;;;;-145.69;66.14;52262.19;4979219;28;20294;-80
2023/10/22 05:38:43;;;;;;;4.03;1.37;;;;;;;-145.69;66.09;52248.34;4983393;28;20213;-80
2023/10/22 05:41:17;;;;;;;3.87;1.10;;;;;;;-145.69;66.04;52244.38;4983117;28;20215;-81
2023/10/22 05:44:03;;;;;;;6.63;1.10;;;;;;;-145.69;66.22;52240.41;5124479;27;21131;-80
2023/10/22 05:46:33;;;;;;;2.03;1.00;;;;;;;-145.69;66.35;52258.22;5112857;28;20201;-80
2023/10/22 05:48:59;;;;;;;1.80;0.90;;;;;;;-145.69;66.42;52280.00;5122087;28;20200;-81
2023/10/22 05:51:26;;;;;;;8.60;1.10;;;;;;;-145.69;66.73;52260.22;5119810;28;20205;-81
2023/10/22 05:53:53;;;;;;;2.97;0.87;;;;;;;-145.69;66.18;52230.50;5128693;28;20201;-81
2023/10/22 05:56:20;;;;;;;2.67;1.07;;;;;;;-145.69;66.29;52276.06;5124531;28;20198;-80
2023/10/22 05:58:47;;;;;;;2.07;1.10;;;;;;;-145.69;66.40;52244.38;5123041;28;20296;-80
2023/10/22 06:01:14;;;;;;;5.30;1.33;;;;;;;-145.69;65.76;52270.13;5121145;28;20198;-80
2023/10/22 06:03:41;;;;;;;3.23;1.00;;;;;;;-145.69;66.21;52236.44;5120774;28;20221;-80
2023/10/22 06:06:10;;;;;;;4.50;1.00;;;;;;;-145.69;65.93;52282.00;5124914;28;20254;-80
2023/10/22 06:08:36;;;;;;;2.17;1.10;;;;;;;-145.69;65.65;52250.31;5123632;28;20194;-80
2023/10/22 06:11:04;;;;;;;2.40;1.00;;;;;;;-145.69;66.09;52240.41;5118247;28;20197;-80
2023/10/22 06:13:31;;;;;;;2.97;1.20;;;;;;;-145.69;66.55;52266.16;5102213;28;20233;-80
2023/10/22 06:15:58;;;;;;;5.20;1.30;;;;;;;-145.69;67.17;52262.19;5109440;28;20732;-80
2023/10/22 06:18:26;;;;;;;2.87;1.10;;;;;;;-145.69;68.15;52270.13;5119437;28;20205;-80
2023/10/22 06:20:52;;;;;;;3.83;1.23;;;;;;;-145.69;67.37;52264.16;5119276;28;20576;-81
2023/10/22 06:23:20;;;;;;;2.23;1.17;;;;;;;-145.69;67.04;52238.44;5120659;28;20221;-80
2023/10/22 06:25:46;;;;;;;2.90;1.10;;;;;;;-145.69;67.00;52250.31;5124424;28;20234;-80
2023/10/22 06:28:13;;;;;;;5.30;1.17;;;;;;;-145.69;66.93;52278.03;5123353;28;20202;-81
2023/10/22 06:30:40;;;;;;;2.43;1.10;;;;;;;-145.69;66.58;52256.25;5119238;28;20204;-80
2023/10/22 06:33:07;;;;;;;3.13;0.97;;;;;;;-145.69;66.50;52254.28;5121306;28;20202;-81
2023/10/22 06:35:36;;;;;;;3.35;1.10;;;;;;;-145.69;68.25;52266.16;5123488;28;20438;-81
2023/10/22 06:38:03;;;;;;;2.13;1.20;;;;;;;-145.69;66.73;52258.22;5120801;28;20691;-80
2023/10/22 06:40:29;;;;;;;3.60;1.37;;;;;;;-145.69;66.77;52258.22;5117978;28;20202;-80
2023/10/22 06:42:56;;;;;;;7.40;1.80;;;;;;;-145.69;66.98;52258.22;5125528;28;20239;-81
2023/10/22 06:45:23;;;;;;;4.55;1.85;;;;;;;-145.69;67.48;52260.22;5120063;28;20444;-82
2023/10/22 06:47:50;;;;;;;9.10;3.47;;;;;;;-145.69;66.81;52262.19;5118183;28;20209;-80
2023/10/22 06:50:17;;;;;;;10.10;2.97;;;;;;;-145.69;67.42;52285.97;5118137;28;20205;-80
2023/10/22 06:52:45;;;;;;;6.03;2.20;;;;;;;-145.69;67.36;52258.22;5113023;28;20285;-80
2023/10/22 06:55:12;;;;;;;6.90;1.60;;;;;;;-145.69;66.99;52262.19;5097737;28;20231;-81
2023/10/22 06:57:39;;;;;;;6.20;4.50;;;;;;;-145.69;67.41;52234.47;5096759;28;20205;-80
2023/10/22 07:00:09;;;;;;;4.43;2.40;;;;;;;-145.69;67.59;52238.44;5094982;28;20202;-80
2023/10/22 07:02:36;;;;;;;8.07;1.80;;;;;;;-145.69;67.53;52270.13;5079778;28;20268;-80
2023/10/22 07:05:02;;;;;;;2.80;1.40;;;;;;;-145.69;67.30;52222.59;5081306;28;20201;-81
2023/10/22 07:07:29;;;;;;;3.37;1.27;;;;;;;-145.69;67.29;52238.44;5079752;28;20198;-80
2023/10/22 07:09:57;;;;;;;5.07;1.40;;;;;;;-145.69;66.96;52274.06;5064511;28;20221;-80
2023/10/22 07:12:24;;;;;;;6.37;1.40;;;;;;;-145.69;66.95;52250.31;5082330;28;20203;-80
2023/10/22 07:14:51;;;;;;;5.60;1.13;;;;;;;-145.69;66.92;52289.91;5083165;28;20210;-81
2023/10/22 07:17:17;;;;;;;5.57;1.30;;;;;;;-145.69;67.12;52234.47;5082565;28;20199;-80
2023/10/22 07:19:44;;;;;;;4.88;1.55;;;;;;;-145.69;67.33;52222.59;5081315;28;20438;-80
2023/10/22 07:22:10;;;;;;;4.37;1.47;;;;;;;-145.69;66.95;52250.31;5086833;28;20285;-80
2023/10/22 07:24:37;;;;;;;5.20;1.33;;;;;;;-145.69;66.71;52244.38;5084924;28;20206;-80
2023/10/22 07:27:05;;;;;;;2.83;1.10;;;;;;;-145.69;66.76;52262.19;5086739;28;20538;-81
2023/10/22 07:29:31;;;;;;;5.03;1.50;;;;;;;-145.69;66.74;52228.53;5083626;28;20210;-80
2023/10/22 07:31:58;;;;;;;2.93;1.30;;;;;;;-145.69;66.46;52234.47;5085945;28;20203;-81
2023/10/22 07:34:24;;;;;;;2.70;1.27;;;;;;;-145.69;65.64;52228.53;5084718;28;20206;-81
2023/10/22 07:36:51;;;;;;;1.43;1.10;;;;;;;-145.69;65.86;52262.19;5086052;28;20201;-81
2023/10/22 07:39:17;;;;;;;7.87;1.40;;;;;;;-145.69;65.88;52274.06;5083686;28;20198;-79
2023/10/22 07:41:43;;;;;;;2.13;1.00;;;;;;;-145.69;65.23;52264.16;5074212;28;20205;-80
2023/10/22 07:44:11;;;;;;;2.30;1.10;;;;;;;-145.69;65.18;52238.44;5091564;28;20226;-77
2023/10/22 07:46:38;;;;;;;6.27;1.60;;;;;;;-145.69;65.61;52258.22;5074271;28;20570;-79
2023/10/22 07:49:04;;;;;;;2.50;1.13;;;;;;;-145.69;64.91;52266.16;5074429;28;20209;-79
2023/10/22 07:51:31;;;;;;;4.93;1.47;;;;;;;-145.69;64.28;52242.38;5074504;28;20213;-79
2023/10/22 07:53:58;;;;;;;4.77;0.87;;;;;;;-145.69;64.54;52242.38;5074227;28;20226;-79
2023/10/22 07:56:25;;;;;;;2.80;1.03;;;;;;;-145.69;64.60;52250.31;5074406;28;20202;-79
2023/10/22 07:58:51;;;;;;;2.93;1.10;;;;;;;-145.69;63.71;52246.34;5074578;28;20260;-79
2023/10/22 08:01:22;;;;;;;4.40;1.07;;;;;;;-145.69;61.05;52248.34;5074319;28;20630;-79
2023/10/22 08:03:49;;;;;;;3.00;0.87;;;;;;;-145.69;62.33;52226.53;5074310;28;20254;-79
2023/10/22 08:06:16;;;;;;;2.53;0.90;;;;;;;-145.69;60.39;52214.66;5073356;28;20205;-79
2023/10/22 08:08:48;;;;;;;5.17;1.00;;;;;;;-145.69;59.24;52188.91;5074318;28;20206;-79
2023/10/22 08:11:14;;;;;;;2.83;0.60;;;;;;;-145.69;60.44;52222.59;5074295;28;20221;-78
2023/10/22 08:13:41;;;;;;;5.53;0.90;;;;;;;-145.69;59.30;52210.72;5073498;28;20661;-80
2023/10/22 08:16:08;;;;;;;4.25;0.80;;;;;;;-145.69;57.78;52216.66;5088589;28;20440;-79
2023/10/22 08:18:39;;;;;;;6.13;0.90;;;;;;;-145.69;56.68;52198.81;5053954;28;20202;-80
2023/10/22 08:21:07;;;;;;;2.17;0.90;;;;;;;-145.69;56.55;52175.06;5053980;28;20214;-80
2023/10/22 08:23:34;;;;;;;6.10;1.07;;;;;;;-145.69;54.94;52190.91;5053423;28;20698;-79
2023/10/22 08:26:00;;;;;;;3.17;0.93;;;;;;;-145.69;53.67;52190.91;5054017;28;20203;-79
2023/10/22 08:28:27;;;;;;;4.47;1.07;;;;;;;-145.69;53.75;52182.97;5053655;28;20199;-80
2023/10/22 08:30:53;;;;;;;4.60;0.90;;;;;;;-145.69;53.50;52200.81;5053995;28;20306;-80
2023/10/22 08:33:20;;;;;;;3.47;0.70;;;;;;;-145.69;52.39;52163.19;5066723;28;20277;-79
2023/10/22 08:35:48;;;;;;;6.53;1.37;;;;;;;-145.69;51.59;52175.06;5094570;28;20220;-80
2023/10/22 08:38:15;;;;;;;6.07;1.10;;;;;;;-145.69;51.80;52179.03;5093670;28;20204;-80
2023/10/22 08:40:43;;;;;;;3.03;1.00;;;;;;;-145.69;51.33;52175.06;5094574;28;20229;-80
2023/10/22 08:43:15;;;;;;;2.92;0.77;;;;;;;-145.69;51.98;52184.97;5079491;28;20777;-80
2023/10/22 08:45:46;;;;;;;5.68;0.90;;;;;;;-145.69;51.17;52149.31;5073293;28;20222;-80
2023/10/22 08:48:13;;;;;;;3.70;0.83;;;;;;;-145.69;49.98;52155.25;5073640;28;20207;-80
2023/10/22 08:50:43;;;;;;;1.35;0.73;;;;;;;-145.69;49.49;52143.38;5086914;28;20194;-80
2023/10/22 08:53:13;;;;;;;1.00;0.63;;;;;;;-145.69;48.16;52186.94;5093623;28;20202;-79
2023/10/22 08:55:43;;;;;;;2.75;1.00;;;;;;;-145.69;49.23;52163.19;5093637;28;20202;-79
2023/10/22 08:58:10;;;;;;;3.30;0.82;;;;;;;-145.69;48.77;52173.09;5093538;28;20202;-79
2023/10/22 09:00:39;;;;;;;2.40;0.95;;;;;;;-145.69;48.11;52161.19;5055644;28;20207;-80
2023/10/22 09:03:06;;;;;;;2.42;0.63;;;;;;;-145.69;47.15;52151.28;5053187;28;20237;-80
2023/10/22 09:05:32;;;;;;;3.72;0.90;;;;;;;-145.69;47.15;52135.47;5053119;28;20207;-80
2023/10/22 09:07:59;;;;;;;10.52;0.82;;;;;;;-145.69;47.12;52151.28;5083228;28;20281;-80
2023/10/22 09:10:31;;;;;;;4.03;0.82;;;;;;;-145.69;46.87;52145.34;5090588;28;20649;-80
2023/10/22 09:13:15;;;;;;;4.22;1.25;;;;;;;-145.69;46.86;52099.81;5072921;28;20195;-80
2023/10/22 09:15:43;;;;;;;1.27;0.63;;;;;;;-145.69;45.07;52165.16;5073170;28;20687;-80
2023/10/22 09:18:10;;;;;;;2.78;0.60;;;;;;;-145.69;45.21;52163.19;5072856;28;20199;-80
2023/10/22 09:20:38;;;;;;;2.72;0.70;;;;;;;-145.69;44.83;52129.50;5073198;28;20234;-79
2023/10/22 09:23:13;;;;;;;1.15;0.63;;;;;;;-145.69;44.11;52125.56;5072958;28;20693;-80
2023/10/22 09:25:42;;;;;;;3.17;0.85;;;;;;;-145.69;44.40;52135.47;5073219;28;20283;-80
2023/10/22 09:28:22;;;;;;;3.30;1.00;;;;;;;-145.69;43.31;52119.63;5073362;28;20202;-82
2023/10/22 09:30:49;;;;;;;4.53;0.60;;;;;;;-145.69;44.10;52119.63;5073229;28;20201;-80
2023/10/22 09:33:18;;;;;;;5.70;0.80;;;;;;;-145.69;44.60;52119.63;5072935;28;20617;-80
2023/10/22 09:36:00;;;;;;;3.42;0.82;;;;;;;-145.69;45.42;52139.41;5089271;28;20190;-80
2023/10/22 09:38:41;;;;;;;2.42;0.60;;;;;;;-145.69;44.69;52139.41;5093127;28;20206;-80
2023/10/22 09:41:12;;;;;;;8.27;1.80;;;;;;;-145.69;44.58;52167.13;5093007;28;20244;-79
2023/10/22 09:43:38;;;;;;;2.72;0.60;;;;;;;-145.69;44.43;52157.25;5088648;28;20708;-80
2023/10/22 09:46:07;;;;;;;2.10;0.70;;;;;;;-145.69;45.56;52153.28;5087747;28;20202;-81
2023/10/22 09:48:35;;;;;;;2.10;0.70;;;;;;;-145.69;45.31;52139.41;5091890;28;20206;-80
2023/10/22 09:51:05;;;;;;;3.05;0.95;;;;;;;-145.69;46.08;52151.28;5077355;28;20305;-80
2023/10/22 09:53:35;;;;;;;4.18;0.75;;;;;;;-145.69;45.78;52151.28;5093121;28;20202;-81
2023/10/22 09:56:06;;;;;;;2.33;0.70;;;;;;;-145.69;46.08;52139.41;5091504;28;20293;-80
2023/10/22 09:58:42;;;;;;;2.80;1.10;;;;;;;-145.69;45.86;52163.19;5072859;28;20293;-81
2023/10/22 10:01:10;;;;;;;3.05;0.90;;;;;;;-145.69;46.22;52165.16;5072651;28;20226;-80
2023/10/22 10:03:37;;;;;;;1.80;1.10;;;;;;;-145.69;46.99;52161.19;5072163;28;20223;-79
2023/10/22 10:06:06;;;;;;;2.88;0.88;;;;;;;-145.69;47.15;52127.53;5072619;28;20611;-81
2023/10/22 10:08:34;;;;;;;0.68;0.60;;;;;;;-145.69;46.31;52157.25;5072657;28;20554;-80
2023/10/22 10:11:01;;;;;;;1.23;0.65;;;;;;;-145.69;45.76;52103.78;5072475;28;20203;-81
2023/10/22 10:13:28;;;;;;;3.67;0.60;;;;;;;-145.69;45.44;52129.50;5086365;28;20953;-81
2023/10/22 10:16:01;;;;;;;5.72;0.93;;;;;;;-145.69;44.84;52157.25;5092909;28;20645;-80
2023/10/22 10:19:03;;;;;;;2.63;0.60;;;;;;;-145.69;43.14;52103.78;5092833;28;20277;-81
2023/10/22 10:21:40;;;;;;;2.10;0.57;;;;;;;-145.69;43.35;52072.09;5057238;28;20641;-80
2023/10/22 10:24:21;;;;;;;2.40;0.60;;;;;;;-145.69;43.09;52121.59;5071166;28;20537;-80
2023/10/22 10:26:50;;;;;;;0.55;0.40;;;;;;;-145.69;43.31;52082.00;5072383;28;20210;-80
2023/10/22 10:29:17;;;;;;;1.95;0.60;;;;;;;-145.69;42.10;52109.72;5074499;28;20203;-82
2023/10/22 10:31:48;;;;;;;1.05;0.60;;;;;;;-145.69;42.64;52078.03;5076752;28;20626;-81
2023/10/22 10:34:39;;;;;;;2.83;0.63;;;;;;;-145.69;41.89;52115.66;5076390;28;20199;-81
2023/10/22 10:37:13;;;;;;;1.83;0.68;;;;;;;-145.69;42.09;52097.84;5073564;28;20203;-82
2023/10/22 10:39:42;;;;;;;3.40;0.88;;;;;;;-145.69;42.20;52093.88;5076085;28;20206;-80
2023/10/22 10:42:09;;;;;;;1.90;0.80;;;;;;;-145.69;42.18;52111.69;5078951;28;20228;-80
2023/10/22 10:45:04;;;;;;;3.22;0.68;;;;;;;-145.69;41.55;52105.75;5096654;28;20230;-81
2023/10/22 10:47:36;;;;;;;3.08;0.85;;;;;;;-145.69;41.49;52103.78;5096158;28;20553;-81
2023/10/22 10:50:05;;;;;;;1.83;0.50;;;;;;;-145.69;41.46;52097.84;5096777;28;20205;-81
2023/10/22 10:52:32;;;;;;;1.92;0.77;;;;;;;-145.69;40.88;52095.84;5080643;28;20605;-81
2023/10/22 10:55:00;;;;;;;6.68;1.02;;;;;;;-145.69;41.29;52097.84;5076441;28;20202;-80
2023/10/22 10:57:46;;;;;;;4.32;0.80;;;;;;;-145.69;41.36;52115.66;5075582;28;20268;-80
2023/10/22 11:00:19;;;;;;;1.98;0.73;;;;;;;-145.69;42.01;52111.69;5075709;28;20220;-79
2023/10/22 11:02:49;;;;;;;3.08;0.68;;;;;;;-145.69;41.81;52119.63;5076719;28;20230;-80
2023/10/22 11:05:18;;;;;;;2.60;0.60;;;;;;;-145.69;41.88;52105.75;5095949;28;20236;-80
2023/10/22 11:07:45;;;;;;;2.72;0.80;;;;;;;-145.69;41.95;52131.50;5095328;28;20645;-79
2023/10/22 11:10:14;;;;;;;3.50;0.95;;;;;;;-145.69;42.28;52123.56;5076903;28;20297;-80
2023/10/22 11:12:42;;;;;;;2.55;0.75;;;;;;;-145.69;42.41;52097.84;5075385;28;20240;-82
2023/10/22 11:15:11;;;;;;;6.00;0.60;;;;;;;-145.69;42.13;52125.56;5075387;28;20207;-80
2023/10/22 11:17:38;;;;;;;2.88;0.68;;;;;;;-145.69;41.39;52095.84;5075270;28;20586;-80
2023/10/22 11:20:08;;;;;;;1.33;0.80;;;;;;;-145.69;40.85;52127.53;5071481;28;20206;-79